sensor_id;sensor_type;location;lat;lon;timestamp;temperature;humidity
54485;DHT22;45006;56.958;24.166;2023-11-21T00:00:16;21.80;72.80
54485;DHT22;45006;56.958;24.166;2023-11-21T00:02:44;21.80;72.90
54485;DHT22;45006;56.958;24.166;2023-11-21T00:05:13;21.80;72.90
54485;DHT22;45006;56.958;24.166;2023-11-21T00:07:43;21.80;73.10
54485;DHT22;45006;56.958;24.166;2023-11-21T00:10:11;21.80;73.00
54485;DHT22;45006;56.958;24.166;2023-11-21T00:12:41;21.80;73.10
54485;DHT22;45006;56.958;24.166;2023-11-21T00:15:09;21.80;73.10
54485;DHT22;45006;56.958;24.166;2023-11-21T00:17:38;21.80;73.20
54485;DHT22;45006;56.958;24.166;2023-11-21T00:20:08;21.80;73.20
54485;DHT22;45006;56.958;24.166;2023-11-21T00:22:36;21.80;73.20
54485;DHT22;45006;56.958;24.166;2023-11-21T00:25:03;21.80;73.10
54485;DHT22;45006;56.958;24.166;2023-11-21T00:27:30;21.80;73.10
54485;DHT22;45006;56.958;24.166;2023-11-21T00:29:57;21.80;73.10
54485;DHT22;45006;56.958;24.166;2023-11-21T00:32:24;21.80;73.10
54485;DHT22;45006;56.958;24.166;2023-11-21T00:34:51;21.80;73.20
54485;DHT22;45006;56.958;24.166;2023-11-21T00:37:18;21.80;73.20
54485;DHT22;45006;56.958;24.166;2023-11-21T00:39:45;21.80;73.20
54485;DHT22;45006;56.958;24.166;2023-11-21T00:42:12;21.80;73.40
54485;DHT22;45006;56.958;24.166;2023-11-21T00:44:39;21.80;73.30
54485;DHT22;45006;56.958;24.166;2023-11-21T00:47:06;21.80;73.20
54485;DHT22;45006;56.958;24.166;2023-11-21T00:49:34;21.80;73.20
54485;DHT22;45006;56.958;24.166;2023-11-21T00:52:02;21.80;73.30
54485;DHT22;45006;56.958;24.166;2023-11-21T00:54:29;21.90;73.50
54485;DHT22;45006;56.958;24.166;2023-11-21T00:56:59;21.80;73.50
54485;DHT22;45006;56.958;24.166;2023-11-21T00:59:26;21.80;73.40
54485;DHT22;45006;56.958;24.166;2023-11-21T01:01:53;21.80;73.40
54485;DHT22;45006;56.958;24.166;2023-11-21T01:04:21;21.80;73.30
54485;DHT22;45006;56.958;24.166;2023-11-21T01:06:48;21.90;73.40
54485;DHT22;45006;56.958;24.166;2023-11-21T01:09:15;21.80;73.30
54485;DHT22;45006;56.958;24.166;2023-11-21T01:11:45;21.80;73.20
54485;DHT22;45006;56.958;24.166;2023-11-21T01:14:13;21.80;73.20
54485;DHT22;45006;56.958;24.166;2023-11-21T01:16:40;21.80;73.20
54485;DHT22;45006;56.958;24.166;2023-11-21T01:19:07;21.80;73.20
54485;DHT22;45006;56.958;24.166;2023-11-21T01:21:34;21.80;73.30
54485;DHT22;45006;56.958;24.166;2023-11-21T01:24:01;21.80;73.40
54485;DHT22;45006;56.958;24.166;2023-11-21T01:26:29;21.80;73.40
54485;DHT22;45006;56.958;24.166;2023-11-21T01:28:56;21.80;73.60
54485;DHT22;45006;56.958;24.166;2023-11-21T01:31:23;21.80;73.60
54485;DHT22;45006;56.958;24.166;2023-11-21T01:33:50;21.80;73.70
54485;DHT22;45006;56.958;24.166;2023-11-21T01:36:17;21.80;73.80
54485;DHT22;45006;56.958;24.166;2023-11-21T01:38:44;21.80;73.90
54485;DHT22;45006;56.958;24.166;2023-11-21T01:41:12;21.80;74.00
54485;DHT22;45006;56.958;24.166;2023-11-21T01:43:41;21.80;74.00
54485;DHT22;45006;56.958;24.166;2023-11-21T01:46:09;21.80;74.00
54485;DHT22;45006;56.958;24.166;2023-11-21T01:48:36;21.80;74.10
54485;DHT22;45006;56.958;24.166;2023-11-21T01:51:05;21.80;74.10
54485;DHT22;45006;56.958;24.166;2023-11-21T01:53:32;21.80;74.00
54485;DHT22;45006;56.958;24.166;2023-11-21T01:56:00;21.80;74.10
54485;DHT22;45006;56.958;24.166;2023-11-21T01:58:27;21.80;74.00
54485;DHT22;45006;56.958;24.166;2023-11-21T02:00:54;21.80;74.10
54485;DHT22;45006;56.958;24.166;2023-11-21T02:03:21;21.90;74.20
54485;DHT22;45006;56.958;24.166;2023-11-21T02:05:49;21.80;74.20
54485;DHT22;45006;56.958;24.166;2023-11-21T02:08:16;21.80;74.30
54485;DHT22;45006;56.958;24.166;2023-11-21T02:10:43;21.80;74.40
54485;DHT22;45006;56.958;24.166;2023-11-21T02:13:10;21.80;74.50
54485;DHT22;45006;56.958;24.166;2023-11-21T02:15:38;21.80;74.40
54485;DHT22;45006;56.958;24.166;2023-11-21T02:18:05;21.80;74.30
54485;DHT22;45006;56.958;24.166;2023-11-21T02:20:33;21.80;74.30
54485;DHT22;45006;56.958;24.166;2023-11-21T02:23:02;21.80;74.20
54485;DHT22;45006;56.958;24.166;2023-11-21T02:25:29;21.80;74.10
54485;DHT22;45006;56.958;24.166;2023-11-21T02:27:58;21.90;74.40
54485;DHT22;45006;56.958;24.166;2023-11-21T02:30:26;21.80;74.30
54485;DHT22;45006;56.958;24.166;2023-11-21T02:32:55;21.90;74.30
54485;DHT22;45006;56.958;24.166;2023-11-21T02:35:24;21.90;74.30
54485;DHT22;45006;56.958;24.166;2023-11-21T02:37:53;21.90;74.20
54485;DHT22;45006;56.958;24.166;2023-11-21T02:40:21;21.90;74.90
54485;DHT22;45006;56.958;24.166;2023-11-21T02:42:48;21.90;74.40
54485;DHT22;45006;56.958;24.166;2023-11-21T02:45:15;21.90;74.40
54485;DHT22;45006;56.958;24.166;2023-11-21T02:47:44;21.90;74.30
54485;DHT22;45006;56.958;24.166;2023-11-21T02:50:11;21.90;74.20
54485;DHT22;45006;56.958;24.166;2023-11-21T02:52:39;21.90;74.10
54485;DHT22;45006;56.958;24.166;2023-11-21T02:55:09;21.90;74.10
54485;DHT22;45006;56.958;24.166;2023-11-21T02:57:36;21.90;74.00
54485;DHT22;45006;56.958;24.166;2023-11-21T03:00:04;21.90;74.00
54485;DHT22;45006;56.958;24.166;2023-11-21T03:02:34;21.90;74.00
54485;DHT22;45006;56.958;24.166;2023-11-21T03:05:07;21.90;73.80
54485;DHT22;45006;56.958;24.166;2023-11-21T03:07:39;21.90;73.90
54485;DHT22;45006;56.958;24.166;2023-11-21T03:10:09;21.90;73.90
54485;DHT22;45006;56.958;24.166;2023-11-21T03:12:38;21.90;73.90
54485;DHT22;45006;56.958;24.166;2023-11-21T03:15:06;21.90;73.80
54485;DHT22;45006;56.958;24.166;2023-11-21T03:17:33;21.90;73.80
54485;DHT22;45006;56.958;24.166;2023-11-21T03:20:02;21.90;74.40
54485;DHT22;45006;56.958;24.166;2023-11-21T03:22:31;21.90;73.90
54485;DHT22;45006;56.958;24.166;2023-11-21T03:24:58;21.90;73.90
54485;DHT22;45006;56.958;24.166;2023-11-21T03:27:25;21.90;73.80
54485;DHT22;45006;56.958;24.166;2023-11-21T03:29:52;21.90;73.70
54485;DHT22;45006;56.958;24.166;2023-11-21T03:32:21;21.90;73.60
54485;DHT22;45006;56.958;24.166;2023-11-21T03:34:58;21.90;73.70
54485;DHT22;45006;56.958;24.166;2023-11-21T03:37:26;21.90;73.60
54485;DHT22;45006;56.958;24.166;2023-11-21T03:39:56;21.90;73.50
54485;DHT22;45006;56.958;24.166;2023-11-21T03:42:24;21.90;73.40
54485;DHT22;45006;56.958;24.166;2023-11-21T03:44:54;21.90;73.40
54485;DHT22;45006;56.958;24.166;2023-11-21T03:47:21;21.90;73.40
54485;DHT22;45006;56.958;24.166;2023-11-21T03:49:48;21.90;73.50
54485;DHT22;45006;56.958;24.166;2023-11-21T03:52:15;21.90;73.50
54485;DHT22;45006;56.958;24.166;2023-11-21T03:54:43;21.90;73.40
54485;DHT22;45006;56.958;24.166;2023-11-21T03:57:11;21.90;73.30
54485;DHT22;45006;56.958;24.166;2023-11-21T03:59:44;21.90;73.40
54485;DHT22;45006;56.958;24.166;2023-11-21T04:02:11;21.90;73.50
54485;DHT22;45006;56.958;24.166;2023-11-21T04:04:38;21.90;73.40
54485;DHT22;45006;56.958;24.166;2023-11-21T04:07:06;21.90;73.40
54485;DHT22;45006;56.958;24.166;2023-11-21T04:09:33;21.90;73.20
54485;DHT22;45006;56.958;24.166;2023-11-21T04:12:00;21.90;73.50
54485;DHT22;45006;56.958;24.166;2023-11-21T04:14:27;21.90;73.50
54485;DHT22;45006;56.958;24.166;2023-11-21T04:16:54;21.90;73.60
54485;DHT22;45006;56.958;24.166;2023-11-21T04:19:21;21.90;73.60
54485;DHT22;45006;56.958;24.166;2023-11-21T04:21:48;21.90;73.70
54485;DHT22;45006;56.958;24.166;2023-11-21T04:24:15;21.90;73.60
54485;DHT22;45006;56.958;24.166;2023-11-21T04:26:44;21.90;73.70
54485;DHT22;45006;56.958;24.166;2023-11-21T04:29:11;21.90;73.60
54485;DHT22;45006;56.958;24.166;2023-11-21T04:31:37;21.90;73.60
54485;DHT22;45006;56.958;24.166;2023-11-21T04:34:05;21.90;73.60
54485;DHT22;45006;56.958;24.166;2023-11-21T04:36:32;21.90;73.70
54485;DHT22;45006;56.958;24.166;2023-11-21T04:38:59;21.90;73.80
54485;DHT22;45006;56.958;24.166;2023-11-21T04:41:26;22.00;73.80
54485;DHT22;45006;56.958;24.166;2023-11-21T04:43:53;21.90;73.70
54485;DHT22;45006;56.958;24.166;2023-11-21T04:46:20;21.90;73.80
54485;DHT22;45006;56.958;24.166;2023-11-21T04:48:47;21.90;73.70
54485;DHT22;45006;56.958;24.166;2023-11-21T04:51:14;21.90;73.50
54485;DHT22;45006;56.958;24.166;2023-11-21T04:53:41;21.90;73.60
54485;DHT22;45006;56.958;24.166;2023-11-21T04:56:08;21.90;73.50
54485;DHT22;45006;56.958;24.166;2023-11-21T04:58:35;22.00;73.60
54485;DHT22;45006;56.958;24.166;2023-11-21T05:01:02;21.90;73.50
54485;DHT22;45006;56.958;24.166;2023-11-21T05:03:34;21.90;73.50
54485;DHT22;45006;56.958;24.166;2023-11-21T05:06:01;22.00;73.60
54485;DHT22;45006;56.958;24.166;2023-11-21T05:08:29;21.90;73.50
54485;DHT22;45006;56.958;24.166;2023-11-21T05:10:56;21.90;73.50
54485;DHT22;45006;56.958;24.166;2023-11-21T05:13:23;21.90;73.50
54485;DHT22;45006;56.958;24.166;2023-11-21T05:15:55;21.90;73.40
54485;DHT22;45006;56.958;24.166;2023-11-21T05:18:25;21.90;73.50
54485;DHT22;45006;56.958;24.166;2023-11-21T05:20:56;21.90;73.10
54485;DHT22;45006;56.958;24.166;2023-11-21T05:23:24;21.90;73.60
54485;DHT22;45006;56.958;24.166;2023-11-21T05:25:51;21.90;73.60
54485;DHT22;45006;56.958;24.166;2023-11-21T05:28:19;21.90;73.60
54485;DHT22;45006;56.958;24.166;2023-11-21T05:30:46;21.90;73.50
54485;DHT22;45006;56.958;24.166;2023-11-21T05:33:13;22.00;73.70
54485;DHT22;45006;56.958;24.166;2023-11-21T05:35:40;21.90;73.80
54485;DHT22;45006;56.958;24.166;2023-11-21T05:38:07;21.90;74.00
54485;DHT22;45006;56.958;24.166;2023-11-21T05:40:34;21.90;74.10
54485;DHT22;45006;56.958;24.166;2023-11-21T05:43:01;21.90;74.10
54485;DHT22;45006;56.958;24.166;2023-11-21T05:45:28;21.90;74.30
54485;DHT22;45006;56.958;24.166;2023-11-21T05:47:58;21.90;74.30
54485;DHT22;45006;56.958;24.166;2023-11-21T05:50:25;21.90;74.40
54485;DHT22;45006;56.958;24.166;2023-11-21T05:52:52;21.90;74.50
54485;DHT22;45006;56.958;24.166;2023-11-21T05:55:23;21.90;74.40
54485;DHT22;45006;56.958;24.166;2023-11-21T05:57:52;21.90;74.70
54485;DHT22;45006;56.958;24.166;2023-11-21T06:00:20;21.90;74.50
54485;DHT22;45006;56.958;24.166;2023-11-21T06:02:53;21.90;74.40
54485;DHT22;45006;56.958;24.166;2023-11-21T06:05:23;21.90;74.50
54485;DHT22;45006;56.958;24.166;2023-11-21T06:07:55;21.80;74.50
54485;DHT22;45006;56.958;24.166;2023-11-21T06:10:26;21.80;74.50
54485;DHT22;45006;56.958;24.166;2023-11-21T06:12:55;21.80;74.70
54485;DHT22;45006;56.958;24.166;2023-11-21T06:15:22;21.80;74.70
54485;DHT22;45006;56.958;24.166;2023-11-21T06:17:50;21.80;74.80
54485;DHT22;45006;56.958;24.166;2023-11-21T06:20:21;21.80;74.90
54485;DHT22;45006;56.958;24.166;2023-11-21T06:22:50;21.80;74.90
54485;DHT22;45006;56.958;24.166;2023-11-21T06:25:17;21.80;74.90
54485;DHT22;45006;56.958;24.166;2023-11-21T06:27:46;21.80;75.10
54485;DHT22;45006;56.958;24.166;2023-11-21T06:30:15;21.80;75.10
54485;DHT22;45006;56.958;24.166;2023-11-21T06:32:43;21.80;75.20
54485;DHT22;45006;56.958;24.166;2023-11-21T06:35:14;21.80;75.30
54485;DHT22;45006;56.958;24.166;2023-11-21T06:37:44;21.80;75.30
54485;DHT22;45006;56.958;24.166;2023-11-21T06:40:19;21.80;75.40
54485;DHT22;45006;56.958;24.166;2023-11-21T06:42:47;21.80;75.50
54485;DHT22;45006;56.958;24.166;2023-11-21T06:45:15;21.80;75.40
54485;DHT22;45006;56.958;24.166;2023-11-21T06:47:43;21.80;75.60
54485;DHT22;45006;56.958;24.166;2023-11-21T06:50:11;21.80;75.60
54485;DHT22;45006;56.958;24.166;2023-11-21T06:52:38;21.80;75.60
54485;DHT22;45006;56.958;24.166;2023-11-21T06:55:06;21.80;75.70
54485;DHT22;45006;56.958;24.166;2023-11-21T06:57:35;21.80;75.70
54485;DHT22;45006;56.958;24.166;2023-11-21T07:00:03;21.80;75.70
54485;DHT22;45006;56.958;24.166;2023-11-21T07:02:30;21.80;75.90
54485;DHT22;45006;56.958;24.166;2023-11-21T07:04:57;21.80;75.80
54485;DHT22;45006;56.958;24.166;2023-11-21T07:07:24;21.80;75.90
54485;DHT22;45006;56.958;24.166;2023-11-21T07:09:51;21.80;75.80
54485;DHT22;45006;56.958;24.166;2023-11-21T07:12:18;21.80;75.90
54485;DHT22;45006;56.958;24.166;2023-11-21T07:14:46;21.80;75.90
54485;DHT22;45006;56.958;24.166;2023-11-21T07:17:13;21.80;76.10
54485;DHT22;45006;56.958;24.166;2023-11-21T07:19:40;21.90;76.30
54485;DHT22;45006;56.958;24.166;2023-11-21T07:22:08;21.80;76.20
54485;DHT22;45006;56.958;24.166;2023-11-21T07:24:37;21.80;75.80
54485;DHT22;45006;56.958;24.166;2023-11-21T07:27:04;21.80;75.00
54485;DHT22;45006;56.958;24.166;2023-11-21T07:29:31;21.80;74.90
54485;DHT22;45006;56.958;24.166;2023-11-21T07:31:58;21.80;74.80
54485;DHT22;45006;56.958;24.166;2023-11-21T07:34:26;21.80;74.60
54485;DHT22;45006;56.958;24.166;2023-11-21T07:36:53;21.80;74.10
54485;DHT22;45006;56.958;24.166;2023-11-21T07:39:19;21.80;73.80
54485;DHT22;45006;56.958;24.166;2023-11-21T07:41:48;21.80;73.30
54485;DHT22;45006;56.958;24.166;2023-11-21T07:44:17;21.80;72.90
54485;DHT22;45006;56.958;24.166;2023-11-21T07:46:44;21.80;72.60
54485;DHT22;45006;56.958;24.166;2023-11-21T07:49:12;21.80;71.90
54485;DHT22;45006;56.958;24.166;2023-11-21T07:51:43;21.80;71.80
54485;DHT22;45006;56.958;24.166;2023-11-21T07:54:11;21.70;71.30
54485;DHT22;45006;56.958;24.166;2023-11-21T07:56:38;21.70;71.40
54485;DHT22;45006;56.958;24.166;2023-11-21T07:59:05;21.70;71.00
54485;DHT22;45006;56.958;24.166;2023-11-21T08:01:32;21.70;70.60
54485;DHT22;45006;56.958;24.166;2023-11-21T08:04:00;21.70;70.30
54485;DHT22;45006;56.958;24.166;2023-11-21T08:06:31;21.70;70.10
54485;DHT22;45006;56.958;24.166;2023-11-21T08:08:58;21.70;69.80
54485;DHT22;45006;56.958;24.166;2023-11-21T08:11:26;21.70;69.80
54485;DHT22;45006;56.958;24.166;2023-11-21T08:13:56;21.70;69.10
54485;DHT22;45006;56.958;24.166;2023-11-21T08:16:23;21.70;68.70
54485;DHT22;45006;56.958;24.166;2023-11-21T08:18:51;21.70;68.80
54485;DHT22;45006;56.958;24.166;2023-11-21T08:21:18;21.70;68.40
54485;DHT22;45006;56.958;24.166;2023-11-21T08:23:46;21.70;68.30
54485;DHT22;45006;56.958;24.166;2023-11-21T08:26:16;21.70;67.80
54485;DHT22;45006;56.958;24.166;2023-11-21T08:28:45;21.70;67.60
54485;DHT22;45006;56.958;24.166;2023-11-21T08:31:14;21.70;67.40
54485;DHT22;45006;56.958;24.166;2023-11-21T08:33:42;21.70;67.50
54485;DHT22;45006;56.958;24.166;2023-11-21T08:36:10;21.70;67.30
54485;DHT22;45006;56.958;24.166;2023-11-21T08:38:39;21.70;67.10
54485;DHT22;45006;56.958;24.166;2023-11-21T08:41:06;21.70;67.30
54485;DHT22;45006;56.958;24.166;2023-11-21T08:43:37;21.70;67.20
54485;DHT22;45006;56.958;24.166;2023-11-21T08:46:07;21.70;67.20
54485;DHT22;45006;56.958;24.166;2023-11-21T08:48:40;21.70;67.30
54485;DHT22;45006;56.958;24.166;2023-11-21T08:51:10;21.70;67.50
54485;DHT22;45006;56.958;24.166;2023-11-21T08:53:38;21.70;67.60
54485;DHT22;45006;56.958;24.166;2023-11-21T08:56:06;21.70;67.50
54485;DHT22;45006;56.958;24.166;2023-11-21T08:58:33;21.70;67.50
54485;DHT22;45006;56.958;24.166;2023-11-21T09:01:00;21.70;67.40
54485;DHT22;45006;56.958;24.166;2023-11-21T09:03:27;21.70;67.20
54485;DHT22;45006;56.958;24.166;2023-11-21T09:05:55;21.70;67.30
54485;DHT22;45006;56.958;24.166;2023-11-21T09:08:22;21.70;67.40
54485;DHT22;45006;56.958;24.166;2023-11-21T09:10:49;21.70;67.30
54485;DHT22;45006;56.958;24.166;2023-11-21T09:13:17;21.70;67.70
54485;DHT22;45006;56.958;24.166;2023-11-21T09:15:44;21.70;67.10
54485;DHT22;45006;56.958;24.166;2023-11-21T09:18:13;21.70;67.10
54485;DHT22;45006;56.958;24.166;2023-11-21T09:20:42;21.70;66.90
54485;DHT22;45006;56.958;24.166;2023-11-21T09:23:10;21.70;66.50
54485;DHT22;45006;56.958;24.166;2023-11-21T09:25:37;21.70;66.10
54485;DHT22;45006;56.958;24.166;2023-11-21T09:28:06;21.70;65.70
54485;DHT22;45006;56.958;24.166;2023-11-21T09:30:36;21.70;65.60
54485;DHT22;45006;56.958;24.166;2023-11-21T09:33:03;21.70;65.30
54485;DHT22;45006;56.958;24.166;2023-11-21T09:35:34;21.70;65.10
54485;DHT22;45006;56.958;24.166;2023-11-21T09:38:01;21.70;65.30
54485;DHT22;45006;56.958;24.166;2023-11-21T09:40:33;21.70;64.80
54485;DHT22;45006;56.958;24.166;2023-11-21T09:43:05;21.70;64.70
54485;DHT22;45006;56.958;24.166;2023-11-21T09:45:38;21.70;64.60
54485;DHT22;45006;56.958;24.166;2023-11-21T09:48:07;21.70;64.60
54485;DHT22;45006;56.958;24.166;2023-11-21T09:50:36;21.70;64.70
54485;DHT22;45006;56.958;24.166;2023-11-21T09:53:17;21.70;64.40
54485;DHT22;45006;56.958;24.166;2023-11-21T09:55:47;21.70;64.60
54485;DHT22;45006;56.958;24.166;2023-11-21T09:58:15;21.70;64.50
54485;DHT22;45006;56.958;24.166;2023-11-21T10:00:47;21.70;64.50
54485;DHT22;45006;56.958;24.166;2023-11-21T10:03:15;21.70;64.20
54485;DHT22;45006;56.958;24.166;2023-11-21T10:05:43;21.70;64.30
54485;DHT22;45006;56.958;24.166;2023-11-21T10:08:13;21.70;64.20
54485;DHT22;45006;56.958;24.166;2023-11-21T10:10:44;21.70;64.30
54485;DHT22;45006;56.958;24.166;2023-11-21T10:13:18;21.70;64.30
54485;DHT22;45006;56.958;24.166;2023-11-21T10:15:50;21.70;64.30
54485;DHT22;45006;56.958;24.166;2023-11-21T10:18:18;21.70;64.30
54485;DHT22;45006;56.958;24.166;2023-11-21T10:20:45;21.70;64.30
54485;DHT22;45006;56.958;24.166;2023-11-21T10:23:21;21.70;64.20
54485;DHT22;45006;56.958;24.166;2023-11-21T10:25:51;21.70;64.30
54485;DHT22;45006;56.958;24.166;2023-11-21T10:28:19;21.70;64.30
54485;DHT22;45006;56.958;24.166;2023-11-21T10:30:48;21.70;64.30
54485;DHT22;45006;56.958;24.166;2023-11-21T10:33:15;21.70;64.40
54485;DHT22;45006;56.958;24.166;2023-11-21T10:35:49;21.70;64.30
54485;DHT22;45006;56.958;24.166;2023-11-21T10:38:22;21.70;64.20
54485;DHT22;45006;56.958;24.166;2023-11-21T10:40:51;21.70;64.30
54485;DHT22;45006;56.958;24.166;2023-11-21T10:43:19;21.70;64.30
54485;DHT22;45006;56.958;24.166;2023-11-21T10:45:46;21.70;64.10
54485;DHT22;45006;56.958;24.166;2023-11-21T10:48:14;21.70;64.20
54485;DHT22;45006;56.958;24.166;2023-11-21T10:50:45;21.70;64.20
54485;DHT22;45006;56.958;24.166;2023-11-21T10:53:13;21.70;64.20
54485;DHT22;45006;56.958;24.166;2023-11-21T10:55:40;21.70;64.10
54485;DHT22;45006;56.958;24.166;2023-11-21T10:58:08;21.70;64.10
54485;DHT22;45006;56.958;24.166;2023-11-21T11:00:38;21.70;64.10
54485;DHT22;45006;56.958;24.166;2023-11-21T11:03:07;21.70;64.10
54485;DHT22;45006;56.958;24.166;2023-11-21T11:05:43;21.70;64.10
54485;DHT22;45006;56.958;24.166;2023-11-21T11:08:21;21.70;64.30
54485;DHT22;45006;56.958;24.166;2023-11-21T11:10:55;21.70;64.40
54485;DHT22;45006;56.958;24.166;2023-11-21T11:13:25;21.70;64.60
54485;DHT22;45006;56.958;24.166;2023-11-21T11:15:58;21.70;64.80
54485;DHT22;45006;56.958;24.166;2023-11-21T11:18:37;21.70;65.10
54485;DHT22;45006;56.958;24.166;2023-11-21T11:22:10;21.70;65.50
54485;DHT22;45006;56.958;24.166;2023-11-21T11:38:23;21.60;66.10
54485;DHT22;45006;56.958;24.166;2023-11-21T11:40:54;21.60;66.30
54485;DHT22;45006;56.958;24.166;2023-11-21T11:43:25;21.60;66.40
54485;DHT22;45006;56.958;24.166;2023-11-21T11:45:58;21.70;66.20
54485;DHT22;45006;56.958;24.166;2023-11-21T11:48:37;21.60;65.70
54485;DHT22;45006;56.958;24.166;2023-11-21T11:51:13;21.70;65.30
54485;DHT22;45006;56.958;24.166;2023-11-21T11:53:48;21.60;64.90
54485;DHT22;45006;56.958;24.166;2023-11-21T11:58:58;21.70;64.50
54485;DHT22;45006;56.958;24.166;2023-11-21T12:01:26;21.70;64.20
54485;DHT22;45006;56.958;24.166;2023-11-21T12:06:44;21.70;64.20
54485;DHT22;45006;56.958;24.166;2023-11-21T12:09:23;21.70;64.00
54485;DHT22;45006;56.958;24.166;2023-11-21T12:11:51;21.70;64.20
54485;DHT22;45006;56.958;24.166;2023-11-21T12:14:18;21.70;64.10
54485;DHT22;45006;56.958;24.166;2023-11-21T12:16:45;21.70;64.10
54485;DHT22;45006;56.958;24.166;2023-11-21T12:19:13;21.70;64.10
54485;DHT22;45006;56.958;24.166;2023-11-21T12:21:40;21.70;64.10
54485;DHT22;45006;56.958;24.166;2023-11-21T12:24:08;21.70;64.00
54485;DHT22;45006;56.958;24.166;2023-11-21T12:26:42;21.70;64.00
54485;DHT22;45006;56.958;24.166;2023-11-21T12:29:09;21.70;64.00
54485;DHT22;45006;56.958;24.166;2023-11-21T12:31:37;21.70;64.10
54485;DHT22;45006;56.958;24.166;2023-11-21T12:34:05;21.70;64.00
54485;DHT22;45006;56.958;24.166;2023-11-21T12:36:34;21.70;64.00
54485;DHT22;45006;56.958;24.166;2023-11-21T12:39:02;21.70;63.90
54485;DHT22;45006;56.958;24.166;2023-11-21T12:41:30;21.70;63.90
54485;DHT22;45006;56.958;24.166;2023-11-21T12:43:58;21.70;63.90
54485;DHT22;45006;56.958;24.166;2023-11-21T12:46:25;21.70;63.90
54485;DHT22;45006;56.958;24.166;2023-11-21T12:48:58;21.70;63.90
54485;DHT22;45006;56.958;24.166;2023-11-21T12:51:25;21.70;63.90
54485;DHT22;45006;56.958;24.166;2023-11-21T12:53:52;21.70;63.90
54485;DHT22;45006;56.958;24.166;2023-11-21T12:56:21;21.70;63.90
54485;DHT22;45006;56.958;24.166;2023-11-21T12:58:53;21.70;63.90
54485;DHT22;45006;56.958;24.166;2023-11-21T13:01:21;21.70;63.90
54485;DHT22;45006;56.958;24.166;2023-11-21T13:03:53;21.70;63.80
54485;DHT22;45006;56.958;24.166;2023-11-21T13:06:20;21.70;63.70
54485;DHT22;45006;56.958;24.166;2023-11-21T13:08:51;21.70;63.70
54485;DHT22;45006;56.958;24.166;2023-11-21T13:11:18;21.60;63.50
54485;DHT22;45006;56.958;24.166;2023-11-21T13:13:46;21.60;63.60
54485;DHT22;45006;56.958;24.166;2023-11-21T13:16:13;21.70;63.60
54485;DHT22;45006;56.958;24.166;2023-11-21T13:18:42;21.70;63.50
54485;DHT22;45006;56.958;24.166;2023-11-21T13:21:10;21.70;63.40
54485;DHT22;45006;56.958;24.166;2023-11-21T13:23:42;21.60;63.40
54485;DHT22;45006;56.958;24.166;2023-11-21T13:26:09;21.60;63.30
54485;DHT22;45006;56.958;24.166;2023-11-21T13:28:37;21.60;63.40
54485;DHT22;45006;56.958;24.166;2023-11-21T13:31:05;21.60;63.50
54485;DHT22;45006;56.958;24.166;2023-11-21T13:33:49;21.60;63.60
54485;DHT22;45006;56.958;24.166;2023-11-21T13:36:23;21.70;63.80
54485;DHT22;45006;56.958;24.166;2023-11-21T13:38:50;21.70;63.90
54485;DHT22;45006;56.958;24.166;2023-11-21T13:41:19;21.70;63.90
54485;DHT22;45006;56.958;24.166;2023-11-21T13:43:46;21.60;63.80
54485;DHT22;45006;56.958;24.166;2023-11-21T13:46:17;21.70;63.90
54485;DHT22;45006;56.958;24.166;2023-11-21T13:48:50;21.70;63.90
54485;DHT22;45006;56.958;24.166;2023-11-21T13:51:23;21.70;64.00
54485;DHT22;45006;56.958;24.166;2023-11-21T13:54:04;21.60;64.00
54485;DHT22;45006;56.958;24.166;2023-11-21T13:56:37;21.70;64.00
54485;DHT22;45006;56.958;24.166;2023-11-21T13:59:05;21.60;64.00
54485;DHT22;45006;56.958;24.166;2023-11-21T14:02:02;21.70;64.10
54485;DHT22;45006;56.958;24.166;2023-11-21T14:04:44;21.60;64.00
54485;DHT22;45006;56.958;24.166;2023-11-21T14:07:27;21.60;64.00
54485;DHT22;45006;56.958;24.166;2023-11-21T14:10:04;21.60;64.10
54485;DHT22;45006;56.958;24.166;2023-11-21T14:12:40;21.60;64.10
54485;DHT22;45006;56.958;24.166;2023-11-21T14:15:09;21.60;64.10
54485;DHT22;45006;56.958;24.166;2023-11-21T14:17:38;21.60;64.00
54485;DHT22;45006;56.958;24.166;2023-11-21T14:20:08;21.60;63.90
54485;DHT22;45006;56.958;24.166;2023-11-21T14:22:43;21.60;64.00
54485;DHT22;45006;56.958;24.166;2023-11-21T14:25:10;21.60;64.10
54485;DHT22;45006;56.958;24.166;2023-11-21T14:27:38;21.70;64.20
54485;DHT22;45006;56.958;24.166;2023-11-21T14:30:06;21.60;64.10
54485;DHT22;45006;56.958;24.166;2023-11-21T14:32:33;21.60;64.10
54485;DHT22;45006;56.958;24.166;2023-11-21T14:35:00;21.60;64.10
54485;DHT22;45006;56.958;24.166;2023-11-21T14:37:27;21.60;64.20
54485;DHT22;45006;56.958;24.166;2023-11-21T14:39:55;21.60;64.10
54485;DHT22;45006;56.958;24.166;2023-11-21T14:42:22;21.60;64.10
54485;DHT22;45006;56.958;24.166;2023-11-21T14:44:52;21.60;64.30
54485;DHT22;45006;56.958;24.166;2023-11-21T14:47:20;21.60;64.30
54485;DHT22;45006;56.958;24.166;2023-11-21T14:49:52;21.60;64.20
54485;DHT22;45006;56.958;24.166;2023-11-21T14:52:20;21.60;64.20
54485;DHT22;45006;56.958;24.166;2023-11-21T14:55:01;21.60;64.30
54485;DHT22;45006;56.958;24.166;2023-11-21T14:57:47;21.60;64.30
54485;DHT22;45006;56.958;24.166;2023-11-21T15:00:18;21.60;64.30
54485;DHT22;45006;56.958;24.166;2023-11-21T15:03:07;21.60;64.30
54485;DHT22;45006;56.958;24.166;2023-11-21T15:05:36;21.60;64.30
54485;DHT22;45006;56.958;24.166;2023-11-21T15:08:05;21.60;64.40
54485;DHT22;45006;56.958;24.166;2023-11-21T15:10:47;21.60;64.40
54485;DHT22;45006;56.958;24.166;2023-11-21T15:13:20;21.60;64.30
54485;DHT22;45006;56.958;24.166;2023-11-21T15:15:52;21.60;64.40
54485;DHT22;45006;56.958;24.166;2023-11-21T15:18:21;21.60;64.30
54485;DHT22;45006;56.958;24.166;2023-11-21T15:20:49;21.60;64.30
54485;DHT22;45006;56.958;24.166;2023-11-21T15:23:16;21.60;64.20
54485;DHT22;45006;56.958;24.166;2023-11-21T15:25:45;21.60;64.20
54485;DHT22;45006;56.958;24.166;2023-11-21T15:28:12;21.60;64.20
54485;DHT22;45006;56.958;24.166;2023-11-21T15:30:39;21.60;64.20
54485;DHT22;45006;56.958;24.166;2023-11-21T15:33:06;21.60;64.20
54485;DHT22;45006;56.958;24.166;2023-11-21T15:35:35;21.60;64.30
54485;DHT22;45006;56.958;24.166;2023-11-21T15:38:05;21.60;64.30
54485;DHT22;45006;56.958;24.166;2023-11-21T15:40:35;21.60;64.20
54485;DHT22;45006;56.958;24.166;2023-11-21T15:43:02;21.60;64.30
54485;DHT22;45006;56.958;24.166;2023-11-21T15:45:33;21.60;64.20